createdAt,value
2023-03-02T00:01:49.405Z,41.95
2023-03-02T00:04:18.250Z,41.80
2023-03-02T00:06:45.092Z,41.91
2023-03-02T00:09:11.614Z,41.44
2023-03-02T00:11:39.072Z,42.08
2023-03-02T00:14:06.303Z,41.92
2023-03-02T00:16:33.616Z,41.97
2023-03-02T00:19:00.358Z,41.96
2023-03-02T00:21:26.886Z,42.14
2023-03-02T00:23:53.479Z,41.66
2023-03-02T00:26:20.050Z,42.02
2023-03-02T00:28:46.576Z,42.50
2023-03-02T00:31:13.131Z,41.54
2023-03-02T00:33:39.675Z,41.73
2023-03-02T00:36:06.620Z,41.81
2023-03-02T00:38:33.205Z,41.54
2023-03-02T00:40:59.683Z,41.88
2023-03-02T00:43:28.061Z,41.94
2023-03-02T00:45:55.068Z,42.04
2023-03-02T00:48:21.678Z,41.99
2023-03-02T00:50:48.165Z,41.91
2023-03-02T00:53:14.667Z,41.92
2023-03-02T00:55:41.151Z,42.00
2023-03-02T00:58:07.693Z,41.86
2023-03-02T01:00:35.635Z,41.73
2023-03-02T01:03:02.237Z,41.79
2023-03-02T01:05:28.777Z,42.24
2023-03-02T01:07:55.249Z,42.02
2023-03-02T01:10:21.780Z,41.70
2023-03-02T01:12:48.302Z,42.36
2023-03-02T01:15:14.928Z,41.79
2023-03-02T01:17:42.911Z,41.76
2023-03-02T01:20:10.947Z,41.61
2023-03-02T01:22:37.479Z,41.69
2023-03-02T01:25:04.165Z,41.67
2023-03-02T01:27:30.665Z,41.74
2023-03-02T01:29:57.221Z,41.42
2023-03-02T01:32:23.930Z,41.75
2023-03-02T01:34:50.511Z,41.76
2023-03-02T01:37:17.081Z,41.81
2023-03-02T01:39:43.640Z,41.80
2023-03-02T01:42:10.186Z,41.63
2023-03-02T01:44:51.214Z,41.65
2023-03-02T01:47:21.899Z,41.64
2023-03-02T01:49:51.446Z,41.67
2023-03-02T01:52:18.012Z,41.78
2023-03-02T01:54:44.615Z,41.69
2023-03-02T01:57:11.202Z,41.59
2023-03-02T01:59:38.301Z,41.85
2023-03-02T02:02:06.471Z,41.60
2023-03-02T02:04:33.150Z,41.70
2023-03-02T02:07:04.802Z,41.74
2023-03-02T02:09:33.849Z,41.69
2023-03-02T02:12:00.434Z,41.41
2023-03-02T02:14:27.028Z,41.61
2023-03-02T02:16:53.552Z,41.86
2023-03-02T02:19:41.447Z,41.58
2023-03-02T02:22:10.064Z,41.51
2023-03-02T02:24:46.380Z,41.61
2023-03-02T02:27:13.193Z,42.06
2023-03-02T02:29:45.595Z,41.67
2023-03-02T02:32:19.661Z,41.58
2023-03-02T02:34:52.085Z,41.67
2023-03-02T02:37:46.473Z,41.67
2023-03-02T02:40:15.826Z,41.75
2023-03-02T02:42:44.496Z,42.19
2023-03-02T02:45:26.794Z,41.56
2023-03-02T02:47:53.428Z,42.06
2023-03-02T02:50:29.292Z,41.59
2023-03-02T02:52:58.427Z,41.64
2023-03-02T02:55:24.946Z,41.69
2023-03-02T02:57:52.240Z,41.66
2023-03-02T03:00:19.581Z,41.59
2023-03-02T03:02:46.188Z,41.34
2023-03-02T03:05:15.940Z,41.27
2023-03-02T03:07:42.542Z,41.64
2023-03-02T03:10:29.999Z,41.67
2023-03-02T03:12:56.540Z,41.55
2023-03-02T03:15:23.057Z,41.50
2023-03-02T03:17:58.911Z,41.66
2023-03-02T03:20:26.074Z,41.51
2023-03-02T03:22:55.688Z,41.52
2023-03-02T03:25:24.906Z,41.59
2023-03-02T03:27:51.515Z,41.71
2023-03-02T03:30:18.143Z,41.79
2023-03-02T03:32:44.663Z,41.59
2023-03-02T03:35:12.342Z,41.70
2023-03-02T03:37:40.187Z,41.74
2023-03-02T03:40:07.720Z,41.62
2023-03-02T03:42:34.315Z,41.87
2023-03-02T03:45:01.266Z,41.64
2023-03-02T03:47:27.893Z,41.52
2023-03-02T03:49:54.401Z,41.62
2023-03-02T03:52:30.722Z,41.46
2023-03-02T03:54:59.548Z,41.28
2023-03-02T03:57:26.936Z,41.67
2023-03-02T03:59:53.804Z,41.49
2023-03-02T04:02:20.653Z,41.78
2023-03-02T04:04:47.365Z,41.73
2023-03-02T04:07:13.930Z,41.59
2023-03-02T04:09:40.566Z,41.64
2023-03-02T04:12:07.572Z,41.43
2023-03-02T04:14:34.125Z,41.50
2023-03-02T04:17:00.670Z,41.70
2023-03-02T04:19:27.215Z,41.63
2023-03-02T04:21:54.292Z,41.62
2023-03-02T04:24:21.863Z,41.68
2023-03-02T04:26:49.175Z,41.70
2023-03-02T04:29:15.874Z,41.68
2023-03-02T04:31:42.433Z,41.29
2023-03-02T04:34:09.013Z,41.78
2023-03-02T04:36:36.953Z,41.49
2023-03-02T04:39:04.515Z,41.51
2023-03-02T04:41:31.057Z,41.29
2023-03-02T04:43:57.635Z,41.76
2023-03-02T04:46:25.230Z,41.64
2023-03-02T04:48:51.845Z,41.50
2023-03-02T04:51:26.864Z,41.69
2023-03-02T04:53:58.314Z,41.51
2023-03-02T04:56:24.845Z,41.82
2023-03-02T04:58:51.580Z,41.63
2023-03-02T05:01:18.624Z,41.61
2023-03-02T05:03:45.156Z,41.64
2023-03-02T05:06:11.648Z,41.38
2023-03-02T05:08:38.289Z,41.34
2023-03-02T05:11:05.169Z,41.60
2023-03-02T05:13:31.790Z,41.63
2023-03-02T05:15:58.511Z,41.44
2023-03-02T05:18:25.342Z,41.74
2023-03-02T05:20:52.977Z,41.62
2023-03-02T05:23:27.145Z,41.68
2023-03-02T05:25:56.749Z,41.63
2023-03-02T05:28:24.397Z,41.60
2023-03-02T05:30:51.040Z,41.70
2023-03-02T05:33:17.561Z,41.35
2023-03-02T05:35:44.199Z,41.62
2023-03-02T05:38:11.683Z,41.29
2023-03-02T05:40:38.791Z,41.54
2023-03-02T05:43:05.453Z,41.37
2023-03-02T05:45:33.558Z,41.55
2023-03-02T05:48:00.036Z,41.26
2023-03-02T05:50:26.664Z,41.38
2023-03-02T05:52:53.235Z,41.51
2023-03-02T05:55:19.883Z,41.55
2023-03-02T05:57:46.594Z,41.37
2023-03-02T06:00:13.818Z,41.46
2023-03-02T06:02:40.677Z,41.51
2023-03-02T06:05:09.153Z,41.63
2023-03-02T06:07:35.723Z,41.74
2023-03-02T06:10:02.696Z,41.71
2023-03-02T06:12:29.258Z,41.61
2023-03-02T06:14:55.788Z,41.75
2023-03-02T06:17:22.295Z,41.81
2023-03-02T06:19:48.822Z,41.80
2023-03-02T06:22:15.305Z,41.89
2023-03-02T06:24:41.854Z,42.03
2023-03-02T06:27:08.398Z,42.32
2023-03-02T06:29:34.976Z,41.98
2023-03-02T06:32:01.629Z,42.00
2023-03-02T06:34:29.414Z,41.97
2023-03-02T06:36:55.956Z,42.23
2023-03-02T06:39:22.567Z,42.07
2023-03-02T06:41:49.358Z,42.00
2023-03-02T06:44:16.628Z,42.13
2023-03-02T06:46:43.457Z,41.97
2023-03-02T06:49:09.941Z,41.97
2023-03-02T06:51:36.490Z,41.95
2023-03-02T06:54:03.090Z,42.09
2023-03-02T06:56:29.589Z,42.18
2023-03-02T06:58:56.107Z,42.06
2023-03-02T07:01:22.705Z,42.00
2023-03-02T07:03:49.336Z,42.21
2023-03-02T07:06:15.986Z,42.01
2023-03-02T07:08:42.539Z,42.71
2023-03-02T07:11:12.807Z,42.09
2023-03-02T07:13:39.736Z,42.33
2023-03-02T07:16:13.550Z,41.96
2023-03-02T07:18:40.196Z,41.98
2023-03-02T07:21:06.677Z,41.43
2023-03-02T07:23:33.346Z,42.13
2023-03-02T07:25:59.896Z,42.30
2023-03-02T07:28:26.418Z,42.09
2023-03-02T07:30:53.582Z,41.95
2023-03-02T07:33:20.797Z,42.10
2023-03-02T07:35:47.439Z,42.11
2023-03-02T07:38:13.917Z,42.24
2023-03-02T07:40:41.680Z,42.16
2023-03-02T07:43:08.440Z,42.03
2023-03-02T07:45:35.154Z,42.22
2023-03-02T07:48:01.937Z,42.25
2023-03-02T07:50:28.549Z,42.24
2023-03-02T07:52:55.058Z,42.57
2023-03-02T07:55:21.576Z,42.10
2023-03-02T07:57:48.126Z,42.26
2023-03-02T08:00:15.224Z,42.32
2023-03-02T08:02:41.914Z,42.32
2023-03-02T08:05:09.022Z,42.21
2023-03-02T08:07:35.537Z,42.35
2023-03-02T08:10:02.051Z,42.34
2023-03-02T08:12:28.825Z,42.12
2023-03-02T08:14:55.610Z,42.30
2023-03-02T08:17:22.289Z,42.31
2023-03-02T08:19:48.789Z,42.26
2023-03-02T08:22:15.345Z,42.22
2023-03-02T08:24:42.828Z,42.34
2023-03-02T08:27:12.299Z,42.17
2023-03-02T08:29:38.857Z,42.30
2023-03-02T08:32:05.733Z,42.26
2023-03-02T08:34:32.387Z,42.42
2023-03-02T08:36:58.973Z,42.16
2023-03-02T08:39:25.525Z,42.20
2023-03-02T08:41:55.143Z,42.15
2023-03-02T08:44:22.310Z,42.03
2023-03-02T08:46:49.937Z,42.10
2023-03-02T08:49:17.035Z,42.29
2023-03-02T08:51:44.080Z,42.29
2023-03-02T08:54:10.663Z,42.14
2023-03-02T08:56:37.883Z,42.36
2023-03-02T08:59:06.288Z,42.14
2023-03-02T09:01:34.893Z,42.21
2023-03-02T09:04:02.327Z,42.21
2023-03-02T09:06:29.619Z,42.40
2023-03-02T09:08:56.461Z,42.15
2023-03-02T09:11:23.056Z,42.33
2023-03-02T09:13:49.617Z,42.38
2023-03-02T09:16:16.310Z,42.36
2023-03-02T09:18:42.921Z,42.43
2023-03-02T09:21:09.783Z,42.19
2023-03-02T09:23:36.644Z,42.32
2023-03-02T09:26:03.961Z,42.25
2023-03-02T09:28:30.628Z,42.21
2023-03-02T09:30:58.536Z,42.16
2023-03-02T09:33:25.052Z,42.31
2023-03-02T09:35:51.652Z,42.31
2023-03-02T09:38:18.461Z,42.14
2023-03-02T09:41:09.622Z,42.18
2023-03-02T09:44:00.157Z,42.28
2023-03-02T09:46:30.857Z,42.32
2023-03-02T09:49:04.175Z,42.25
2023-03-02T09:51:36.788Z,42.41
2023-03-02T09:54:11.232Z,42.27
2023-03-02T09:56:42.700Z,41.90
2023-03-02T09:59:25.342Z,42.27
2023-03-02T10:02:01.375Z,42.17
2023-03-02T10:04:30.108Z,42.28
2023-03-02T10:07:01.343Z,42.28
2023-03-02T10:09:27.955Z,42.22
2023-03-02T10:12:02.919Z,42.18
2023-03-02T10:14:39.319Z,42.03
2023-03-02T10:17:35.545Z,42.35
2023-03-02T10:20:08.856Z,42.35
2023-03-02T10:22:38.305Z,42.50
2023-03-02T10:25:21.170Z,42.27
2023-03-02T10:27:51.216Z,42.27
2023-03-02T10:30:37.165Z,42.25
2023-03-02T10:33:09.528Z,42.25
2023-03-02T10:35:36.355Z,42.19
2023-03-02T10:38:11.642Z,42.36
2023-03-02T10:40:52.958Z,42.31
2023-03-02T10:43:24.919Z,42.23
2023-03-02T10:46:01.930Z,42.23
2023-03-02T10:48:28.781Z,42.44
2023-03-02T10:50:56.323Z,42.36
2023-03-02T10:53:22.962Z,42.40
2023-03-02T10:55:53.291Z,42.48
2023-03-02T10:58:25.934Z,42.34
2023-03-02T11:01:05.837Z,42.29
2023-03-02T11:03:32.562Z,42.40
2023-03-02T11:06:11.171Z,42.56
2023-03-02T11:08:37.707Z,42.28
2023-03-02T11:11:04.434Z,42.51
2023-03-02T11:13:35.715Z,42.23
2023-03-02T11:16:03.828Z,42.22
2023-03-02T11:18:33.222Z,42.20
2023-03-02T11:21:02.587Z,42.48
2023-03-02T11:23:40.245Z,42.06
2023-03-02T11:26:15.960Z,42.28
2023-03-02T11:28:46.983Z,42.31
2023-03-02T11:31:24.058Z,42.38
2023-03-02T11:34:15.594Z,42.45
2023-03-02T11:37:04.970Z,42.30
2023-03-02T11:39:56.107Z,42.33
2023-03-02T11:42:36.848Z,42.38
2023-03-02T11:45:24.705Z,42.46
2023-03-02T11:48:03.701Z,42.41
2023-03-02T11:50:35.179Z,42.40
2023-03-02T11:53:04.118Z,42.34
2023-03-02T11:55:34.267Z,42.42
2023-03-02T12:00:40.902Z,42.57
2023-03-02T12:03:40.809Z,42.52
2023-03-02T12:06:14.703Z,42.49
2023-03-02T12:08:42.720Z,42.50
2023-03-02T12:11:30.758Z,42.45
2023-03-02T12:14:43.448Z,42.55
2023-03-02T12:17:25.297Z,42.54
2023-03-02T12:19:55.983Z,42.64
2023-03-02T12:22:27.806Z,42.72
2023-03-02T12:25:05.178Z,42.56
2023-03-02T12:27:35.750Z,42.60
2023-03-02T12:30:24.495Z,42.50
2023-03-02T12:33:18.136Z,42.56
2023-03-02T12:35:44.791Z,42.21
2023-03-02T12:38:47.837Z,42.65
2023-03-02T12:41:41.573Z,42.63
2023-03-02T12:44:17.238Z,42.46
2023-03-02T12:46:47.011Z,42.59
2023-03-02T12:49:51.312Z,42.63
2023-03-02T12:52:36.596Z,42.61
2023-03-02T12:55:10.060Z,42.77
2023-03-02T12:57:47.753Z,42.58
2023-03-02T13:00:16.318Z,42.83
2023-03-02T13:02:47.073Z,42.60
2023-03-02T13:05:23.840Z,42.63
2023-03-02T13:08:13.382Z,42.55
2023-03-02T13:10:41.465Z,42.60
2023-03-02T13:13:18.223Z,42.58
2023-03-02T13:15:51.836Z,42.56
2023-03-02T13:18:18.556Z,42.66
2023-03-02T13:20:45.162Z,42.50
2023-03-02T13:23:13.301Z,42.63
2023-03-02T13:25:58.553Z,42.67
2023-03-02T13:28:32.477Z,42.69
2023-03-02T13:31:22.178Z,42.67
2023-03-02T13:33:50.318Z,42.71
2023-03-02T13:36:20.821Z,42.66
2023-03-02T13:38:59.240Z,42.75
2023-03-02T13:41:30.736Z,42.77
2023-03-02T13:43:57.690Z,42.67
2023-03-02T13:46:37.100Z,42.60
2023-03-02T13:49:10.799Z,42.66
2023-03-02T13:51:45.416Z,42.67
2023-03-02T13:54:25.691Z,42.73
2023-03-02T13:56:53.503Z,42.67
2023-03-02T13:59:20.542Z,42.79
2023-03-02T14:01:47.290Z,42.81
2023-03-02T14:04:15.037Z,42.61
2023-03-02T14:06:41.696Z,42.43
2023-03-02T14:09:08.300Z,42.23
2023-03-02T14:11:40.158Z,42.54
2023-03-02T14:14:06.886Z,42.57
2023-03-02T14:16:36.038Z,42.75
2023-03-02T14:19:02.775Z,42.71
2023-03-02T14:21:29.438Z,42.69
2023-03-02T14:23:56.164Z,42.75
2023-03-02T14:26:39.512Z,42.65
2023-03-02T14:29:23.216Z,42.71
2023-03-02T14:31:49.797Z,43.13
2023-03-02T14:34:16.408Z,42.90
2023-03-02T14:36:44.036Z,42.75
2023-03-02T14:39:24.200Z,42.71
2023-03-02T14:41:54.104Z,42.83
2023-03-02T14:44:21.082Z,42.93
2023-03-02T14:46:47.799Z,42.57
2023-03-02T14:49:14.412Z,42.49
2023-03-02T14:51:41.138Z,42.85
2023-03-02T14:54:09.388Z,42.83
2023-03-02T14:56:35.959Z,42.73
2023-03-02T14:59:02.513Z,43.11
2023-03-02T15:01:29.237Z,42.86
2023-03-02T15:03:55.804Z,43.13
2023-03-02T15:06:27.464Z,42.67
2023-03-02T15:08:55.004Z,42.72
2023-03-02T15:11:21.640Z,42.66
2023-03-02T15:13:48.336Z,42.71
2023-03-02T15:16:15.175Z,42.70
2023-03-02T15:18:41.735Z,42.58
2023-03-02T15:21:12.051Z,42.63
2023-03-02T15:23:39.847Z,42.74
2023-03-02T15:26:06.408Z,42.60
2023-03-02T15:28:32.962Z,42.63
2023-03-02T15:31:06.881Z,42.74
2023-03-02T15:33:33.772Z,42.83
2023-03-02T15:36:00.749Z,42.78
2023-03-02T15:38:27.296Z,42.64
2023-03-02T15:40:53.901Z,42.73
2023-03-02T15:43:20.520Z,43.48
2023-03-02T15:45:47.094Z,43.10
2023-03-02T15:48:13.892Z,42.77
2023-03-02T15:50:40.512Z,42.49
2023-03-02T15:53:07.259Z,42.79
2023-03-02T15:55:33.902Z,42.81
2023-03-02T15:58:00.511Z,42.96
2023-03-02T16:00:27.233Z,42.80
2023-03-02T16:02:53.794Z,42.86
2023-03-02T16:05:20.399Z,42.89
2023-03-02T16:07:46.930Z,42.98
2023-03-02T16:10:16.374Z,43.13
2023-03-02T16:12:43.471Z,43.06
2023-03-02T16:15:10.415Z,42.99
2023-03-02T16:17:36.975Z,42.94
2023-03-02T16:20:03.985Z,42.88
2023-03-02T16:22:30.527Z,43.13
2023-03-02T16:24:57.064Z,42.73
2023-03-02T16:27:23.642Z,42.82
2023-03-02T16:29:50.464Z,42.58
2023-03-02T16:32:17.075Z,43.16
2023-03-02T16:34:43.685Z,42.74
2023-03-02T16:37:10.260Z,43.00
2023-03-02T16:39:36.900Z,42.86
2023-03-02T16:42:03.550Z,42.93
2023-03-02T16:44:30.117Z,43.17
2023-03-02T16:46:57.543Z,43.03
2023-03-02T16:49:24.234Z,42.61
2023-03-02T16:51:50.780Z,42.86
2023-03-02T16:54:17.380Z,42.93
2023-03-02T16:56:47.228Z,43.28
2023-03-02T16:59:14.216Z,42.97
2023-03-02T17:01:40.824Z,43.14
2023-03-02T17:04:07.688Z,42.95
2023-03-02T17:06:34.343Z,42.96
2023-03-02T17:09:00.947Z,42.96
2023-03-02T17:11:27.612Z,42.93
2023-03-02T17:13:54.141Z,42.97
2023-03-02T17:16:20.787Z,43.28
2023-03-02T17:18:47.414Z,42.88
2023-03-02T17:21:16.049Z,42.81
2023-03-02T17:23:42.677Z,43.05
2023-03-02T17:26:09.229Z,42.52
2023-03-02T17:28:35.794Z,42.98
2023-03-02T17:31:04.316Z,43.05
2023-03-02T17:33:32.166Z,43.08
2023-03-02T17:36:03.974Z,43.18
2023-03-02T17:38:30.508Z,43.19
2023-03-02T17:41:01.720Z,43.17
2023-03-02T17:43:31.504Z,43.03
2023-03-02T17:46:08.033Z,43.15
2023-03-02T17:48:34.568Z,42.74
2023-03-02T17:51:01.118Z,43.22
2023-03-02T17:53:28.095Z,43.28
2023-03-02T17:55:54.598Z,43.16
2023-03-02T17:58:21.234Z,43.13
2023-03-02T18:00:47.774Z,42.96
2023-03-02T18:03:14.463Z,42.91
2023-03-02T18:05:41.039Z,43.11
2023-03-02T18:08:07.612Z,42.97
2023-03-02T18:10:34.156Z,43.11
2023-03-02T18:13:00.827Z,43.06
2023-03-02T18:15:29.058Z,42.77
2023-03-02T18:17:55.597Z,43.08
2023-03-02T18:20:22.096Z,42.60
2023-03-02T18:22:48.656Z,43.01
2023-03-02T18:25:15.238Z,43.08
2023-03-02T18:27:41.846Z,43.35
2023-03-02T18:30:09.230Z,43.22
2023-03-02T18:32:35.826Z,43.43
2023-03-02T18:35:02.391Z,43.12
2023-03-02T18:37:30.535Z,43.00
2023-03-02T18:39:57.140Z,43.71
2023-03-02T18:42:23.692Z,43.12
2023-03-02T18:44:50.324Z,43.27
2023-03-02T18:47:17.896Z,43.19
2023-03-02T18:49:45.319Z,43.74
2023-03-02T18:52:12.077Z,43.08
2023-03-02T18:54:38.874Z,43.27
2023-03-02T18:57:07.414Z,43.59
2023-03-02T18:59:34.098Z,43.24
2023-03-02T19:02:00.734Z,43.37
2023-03-02T19:04:27.370Z,43.22
2023-03-02T19:06:55.627Z,43.37
2023-03-02T19:09:23.021Z,43.28
2023-03-02T19:11:49.624Z,43.15
2023-03-02T19:14:16.265Z,43.21
2023-03-02T19:16:42.943Z,43.35
2023-03-02T19:19:09.568Z,43.19
2023-03-02T19:21:36.119Z,43.24
2023-03-02T19:24:02.736Z,43.09
2023-03-02T19:26:29.359Z,42.74
2023-03-02T19:28:56.015Z,43.15
2023-03-02T19:31:23.699Z,43.26
2023-03-02T19:33:50.224Z,43.13
2023-03-02T19:36:16.754Z,43.10
2023-03-02T19:38:44.509Z,43.49
2023-03-02T19:41:12.677Z,43.22
2023-03-02T19:43:40.443Z,43.32
2023-03-02T19:46:07.002Z,43.16
2023-03-02T19:48:35.534Z,43.08
2023-03-02T19:51:02.261Z,43.20
2023-03-02T19:53:28.987Z,43.14
2023-03-02T19:56:00.442Z,43.28
2023-03-02T19:58:28.540Z,43.08
2023-03-02T20:00:55.099Z,43.27
2023-03-02T20:03:21.691Z,43.40
2023-03-02T20:05:48.219Z,43.73
2023-03-02T20:08:16.822Z,43.26
2023-03-02T20:10:44.974Z,43.41
2023-03-02T20:13:11.749Z,43.27
2023-03-02T20:15:41.157Z,43.42
2023-03-02T20:18:08.685Z,43.31
2023-03-02T20:20:35.543Z,43.28
2023-03-02T20:23:02.202Z,43.42
2023-03-02T20:25:28.820Z,43.41
2023-03-02T20:27:55.379Z,43.65
2023-03-02T20:30:28.547Z,43.31
2023-03-02T20:32:55.471Z,43.32
2023-03-02T20:35:22.098Z,43.19
2023-03-02T20:37:48.912Z,43.32
2023-03-02T20:40:15.560Z,43.28
2023-03-02T20:42:42.343Z,43.30
2023-03-02T20:45:09.603Z,43.16
2023-03-02T20:47:36.525Z,43.25
2023-03-02T20:50:04.922Z,43.26
2023-03-02T20:52:31.452Z,43.31
2023-03-02T20:54:58.182Z,43.27
2023-03-02T20:57:24.710Z,43.52
2023-03-02T20:59:51.435Z,43.12
2023-03-02T21:02:18.580Z,43.30
2023-03-02T21:04:45.135Z,43.40
2023-03-02T21:07:11.832Z,43.25
2023-03-02T21:09:38.601Z,43.35
2023-03-02T21:12:05.530Z,43.42
2023-03-02T21:14:33.259Z,43.41
2023-03-02T21:17:00.536Z,43.69
2023-03-02T21:19:29.382Z,43.29
2023-03-02T21:21:56.498Z,43.22
2023-03-02T21:24:23.197Z,43.35
2023-03-02T21:26:50.904Z,43.40
2023-03-02T21:29:18.344Z,43.49
2023-03-02T21:31:46.233Z,43.44
2023-03-02T21:34:12.897Z,43.48
2023-03-02T21:36:39.485Z,43.32
2023-03-02T21:39:06.850Z,43.40
2023-03-02T21:41:35.803Z,43.19
2023-03-02T21:44:05.133Z,43.38
2023-03-02T21:46:31.982Z,43.38
2023-03-02T21:48:58.701Z,43.37
2023-03-02T21:51:25.328Z,43.52
2023-03-02T21:53:54.646Z,43.70
2023-03-02T21:56:23.060Z,43.23
2023-03-02T21:58:50.307Z,43.50
2023-03-02T22:01:16.920Z,43.39
2023-03-02T22:03:43.467Z,43.06
2023-03-02T22:06:24.913Z,43.20
2023-03-02T22:08:51.538Z,43.49
2023-03-02T22:11:21.686Z,43.37
2023-03-02T22:13:49.678Z,43.36
2023-03-02T22:16:27.151Z,43.48
2023-03-02T22:18:58.322Z,43.45
2023-03-02T22:21:30.911Z,43.47
2023-03-02T22:24:09.136Z,43.39
2023-03-02T22:26:46.671Z,43.27
2023-03-02T22:29:14.443Z,43.44
2023-03-02T22:31:43.540Z,43.49
2023-03-02T22:34:22.435Z,43.52
2023-03-02T22:36:48.991Z,43.67
2023-03-02T22:39:18.466Z,43.40
2023-03-02T22:41:45.021Z,43.93
2023-03-02T22:44:12.624Z,43.55
2023-03-02T22:46:39.903Z,43.46
2023-03-02T22:49:17.306Z,43.28
2023-03-02T22:51:44.580Z,43.58
2023-03-02T22:54:21.728Z,43.47
2023-03-02T22:56:50.093Z,43.42
2023-03-02T22:59:19.491Z,43.57
2023-03-02T23:01:46.176Z,43.55
2023-03-02T23:04:31.459Z,43.52
2023-03-02T23:07:02.717Z,43.55
2023-03-02T23:09:31.723Z,43.58
2023-03-02T23:12:02.604Z,43.60
2023-03-02T23:14:35.013Z,43.54
2023-03-02T23:17:05.824Z,43.42
2023-03-02T23:19:32.439Z,43.33
2023-03-02T23:21:59.050Z,43.05
2023-03-02T23:24:25.658Z,43.54
2023-03-02T23:26:52.347Z,43.47
2023-03-02T23:29:19.455Z,43.45
2023-03-02T23:31:46.226Z,43.36
2023-03-02T23:34:13.124Z,43.55
2023-03-02T23:36:39.862Z,43.40
2023-03-02T23:39:07.688Z,43.26
2023-03-02T23:41:34.953Z,43.56
2023-03-02T23:44:01.516Z,43.12
2023-03-02T23:46:28.296Z,43.69
2023-03-02T23:48:56.160Z,43.33
2023-03-02T23:51:23.842Z,43.47
2023-03-02T23:53:50.429Z,43.15
2023-03-02T23:56:16.981Z,43.04
2023-03-02T23:58:43.535Z,43.52
